Terminal Aerodrome Forecast
Issued by NWS

Home | Current Version | Previous Version | Text Only | Print | Product List | Glossary On
Versions: 1 2 3 4 5 6 7 8 9 10 11 12 13 14 15 16 17 18 19 20 21 22 23 24 25 26 27 28 29 30 31 32 33 34
000
FTUS45 KBOI 211136
TAFTWF
TAF
KTWF 211136Z 2112/2212 24015G25KT P6SM -SHRA SCT080 OVC200
      TEMPO 2114/2117 27015G30KT 6SM RA BKN035 OVC080
     FM211700 26020G30KT P6SM SCT060 BKN120
      TEMPO 2117/2119 25030G40KT 6SM -SHRA FEW035 OVC100
     FM220100 26015KT P6SM FEW080
     FM220300 21013KT P6SM SKC
     FM221100 18007KT P6SM BKN200=

USA.gov is the U.S. government's official web portal to all federal, state and local government web resources and services.